Time;durP1;ratioP1;P1;durP2;ratioP2;P2;SDS_P1;SDS_P2;PMS_P1;PMS_P2;Temp;Humidity;BMP_temperature;BMP_pressure;BME280_temperature;BME280_humidity;BME280_pressure;Samples;Min_cycle;Max_cycle;Signal;HPM_P1;HPM_P2
2021/01/09 00:00:48;;;;;;;0.20;0.10;;;;;;;1.31;100.00;100577.66;5010346;28;20808;-51
2021/01/09 00:03:14;;;;;;;0.20;0.13;;;;;;;1.40;100.00;100583.91;5012211;28;20504;-51
2021/01/09 00:05:40;;;;;;;0.20;0.10;;;;;;;1.57;100.00;100578.88;5012663;28;20448;-50
2021/01/09 00:08:06;;;;;;;0.20;0.10;;;;;;;1.68;100.00;100581.63;5013394;28;20467;-50
2021/01/09 00:10:32;;;;;;;0.30;0.10;;;;;;;1.71;100.00;100582.56;5013297;28;20457;-50
2021/01/09 00:12:58;;;;;;;0.20;0.10;;;;;;;1.91;100.00;100581.88;5012723;28;21060;-51
2021/01/09 00:15:24;;;;;;;0.20;0.10;;;;;;;2.07;100.00;100579.47;5012781;28;20518;-50
2021/01/09 00:17:51;;;;;;;0.30;0.20;;;;;;;2.15;100.00;100578.66;5013269;28;20539;-51
2021/01/09 00:20:17;;;;;;;0.20;0.10;;;;;;;2.34;100.00;100576.25;5011804;28;20457;-51
2021/01/09 00:22:43;;;;;;;0.20;0.10;;;;;;;2.28;100.00;100581.41;5013535;28;21032;-51
2021/01/09 00:25:12;;;;;;;0.20;0.10;;;;;;;2.20;100.00;100584.84;5013038;28;20457;-51
2021/01/09 00:27:39;;;;;;;0.30;0.30;;;;;;;2.41;100.00;100586.78;5012922;28;20463;-51
2021/01/09 00:30:07;;;;;;;0.20;0.10;;;;;;;1.89;100.00;100587.13;5012469;28;20455;-50
2021/01/09 00:32:33;;;;;;;0.20;0.10;;;;;;;1.81;100.00;100596.66;5012543;28;20464;-51
2021/01/09 00:35:01;;;;;;;0.20;0.10;;;;;;;1.72;100.00;100591.28;5011223;28;20490;-51
2021/01/09 00:37:28;;;;;;;0.20;0.10;;;;;;;1.63;100.00;100601.66;5013557;28;20452;-51
2021/01/09 00:39:54;;;;;;;0.30;0.20;;;;;;;1.72;100.00;100594.78;5016814;28;20456;-51
2021/01/09 00:42:20;;;;;;;0.20;0.10;;;;;;;1.71;100.00;100598.28;5015567;28;20837;-51
2021/01/09 00:44:47;;;;;;;0.20;0.10;;;;;;;1.78;100.00;100602.75;5016429;28;20941;-50
2021/01/09 00:47:13;;;;;;;0.20;0.10;;;;;;;1.48;100.00;100610.19;5016938;28;20802;-50
2021/01/09 00:49:39;;;;;;;0.20;0.10;;;;;;;1.27;100.00;100602.06;5015691;28;20460;-50
2021/01/09 00:52:05;;;;;;;0.20;0.10;;;;;;;1.15;100.00;100611.50;5009103;28;20472;-50
2021/01/09 00:54:32;;;;;;;0.30;0.10;;;;;;;1.28;100.00;100607.31;5016108;28;20916;-50
2021/01/09 00:56:59;;;;;;;0.20;0.10;;;;;;;1.03;100.00;100611.31;5016638;28;20864;-50
2021/01/09 00:59:25;;;;;;;0.20;0.10;;;;;;;0.84;100.00;100614.50;5008792;28;20499;-50
2021/01/09 01:01:56;;;;;;;0.20;0.10;;;;;;;0.73;100.00;100611.72;5016575;28;20452;-50
2021/01/09 01:04:23;;;;;;;0.20;0.10;;;;;;;0.64;100.00;100606.31;5003417;28;20930;-50
2021/01/09 01:06:49;;;;;;;0.20;0.10;;;;;;;0.55;100.00;100609.69;5015750;28;20460;-50
2021/01/09 01:09:15;;;;;;;0.20;0.10;;;;;;;0.50;100.00;100597.38;5016489;28;20460;-50
2021/01/09 01:11:42;;;;;;;0.20;0.10;;;;;;;0.66;100.00;100596.75;5016154;28;20461;-50
2021/01/09 01:14:09;;;;;;;0.37;0.37;;;;;;;0.52;100.00;100609.59;5016598;28;20496;-50
2021/01/09 01:16:35;;;;;;;0.20;0.10;;;;;;;0.57;100.00;100607.97;5016369;28;20448;-50
2021/01/09 01:19:03;;;;;;;0.20;0.10;;;;;;;0.69;100.00;100603.81;5015883;28;20548;-50
2021/01/09 01:21:29;;;;;;;0.20;0.10;;;;;;;0.75;100.00;100607.38;5014136;28;20464;-50
2021/01/09 01:23:55;;;;;;;0.20;0.10;;;;;;;0.68;100.00;100615.09;5016182;28;20542;-50
2021/01/09 01:26:21;;;;;;;0.20;0.10;;;;;;;0.75;100.00;100614.34;5015522;28;20518;-50
2021/01/09 01:28:47;;;;;;;0.20;0.10;;;;;;;0.78;100.00;100622.25;5016235;28;20511;-50
2021/01/09 01:31:13;;;;;;;0.20;0.10;;;;;;;0.79;100.00;100632.72;5016017;28;20575;-50
2021/01/09 01:33:40;;;;;;;0.20;0.10;;;;;;;1.10;100.00;100638.47;5015798;28;20519;-50
2021/01/09 01:36:10;;;;;;;0.20;0.10;;;;;;;1.36;100.00;100641.44;5013979;28;20456;-50
2021/01/09 01:38:37;;;;;;;0.20;0.10;;;;;;;1.18;100.00;100642.94;5015674;28;20456;-50
2021/01/09 01:41:08;;;;;;;0.20;0.10;;;;;;;1.10;100.00;100647.19;5015458;28;20933;-50
2021/01/09 01:43:35;;;;;;;0.20;0.10;;;;;;;1.11;100.00;100640.22;5015574;28;20503;-50
2021/01/09 01:46:04;;;;;;;0.20;0.10;;;;;;;1.09;100.00;100642.78;5015554;28;20506;-50
2021/01/09 01:48:32;;;;;;;0.20;0.10;;;;;;;0.95;100.00;100644.31;5014882;28;20459;-50
2021/01/09 01:50:59;;;;;;;0.20;0.10;;;;;;;0.95;100.00;100648.66;5013229;28;20836;-50
2021/01/09 01:53:29;;;;;;;0.20;0.10;;;;;;;1.15;100.00;100647.25;5015275;28;20908;-50
2021/01/09 01:55:55;;;;;;;0.20;0.10;;;;;;;1.22;100.00;100642.97;5015698;28;20506;-51
2021/01/09 01:58:21;;;;;;;0.20;0.10;;;;;;;1.17;100.00;100649.03;5010860;28;20465;-50
2021/01/09 02:00:49;;;;;;;0.20;0.10;;;;;;;1.29;100.00;100642.22;5013099;28;20453;-50
2021/01/09 02:03:21;;;;;;;0.20;0.10;;;;;;;1.24;100.00;100643.91;5015143;28;21034;-51
2021/01/09 02:06:06;;;;;;;0.20;0.10;;;;;;;1.23;100.00;100643.00;5015312;28;20445;-50
2021/01/09 02:08:44;;;;;;;0.20;0.10;;;;;;;1.16;100.00;100639.44;5012243;28;20457;-50
2021/01/09 02:11:20;;;;;;;0.20;0.10;;;;;;;1.30;100.00;100642.25;5015079;28;20938;-50
2021/01/09 02:13:52;;;;;;;0.20;0.10;;;;;;;1.55;100.00;100645.22;5014785;28;20496;-51
2021/01/09 02:16:19;;;;;;;0.20;0.10;;;;;;;1.36;100.00;100639.69;5015555;28;20499;-50
2021/01/09 02:18:46;;;;;;;0.20;0.10;;;;;;;1.68;100.00;100641.91;5015123;28;20506;-50
2021/01/09 02:21:20;;;;;;;0.20;0.13;;;;;;;1.83;100.00;100651.69;5014930;28;20511;-50
2021/01/09 02:23:46;;;;;;;0.20;0.10;;;;;;;1.75;100.00;100647.22;5012880;28;20476;-51
2021/01/09 02:26:12;;;;;;;0.20;0.10;;;;;;;1.79;100.00;100642.94;5015265;28;20449;-50
2021/01/09 02:28:39;;;;;;;0.20;0.10;;;;;;;2.10;100.00;100640.66;5014620;28;20945;-50
2021/01/09 02:31:07;;;;;;;0.20;0.10;;;;;;;2.37;100.00;100641.84;5014888;28;20456;-50
2021/01/09 02:33:36;;;;;;;0.20;0.10;;;;;;;2.01;100.00;100637.06;5014429;28;20501;-50
2021/01/09 02:36:04;;;;;;;0.20;0.10;;;;;;;2.19;100.00;100635.50;5014658;28;20990;-50
2021/01/09 02:38:30;;;;;;;0.20;0.10;;;;;;;2.29;100.00;100633.00;5006996;28;20495;-51
2021/01/09 02:40:59;;;;;;;0.20;0.10;;;;;;;2.10;100.00;100632.78;5014537;28;20510;-51
2021/01/09 02:43:27;;;;;;;0.20;0.10;;;;;;;2.34;100.00;100633.06;5014251;28;20851;-51
2021/01/09 02:45:53;;;;;;;0.20;0.10;;;;;;;2.47;100.00;100634.03;5014204;28;20448;-50
2021/01/09 02:48:19;;;;;;;0.20;0.10;;;;;;;2.47;100.00;100629.69;5014620;28;20449;-50
2021/01/09 02:50:45;;;;;;;0.20;0.10;;;;;;;2.40;100.00;100627.00;5013091;28;20954;-50
2021/01/09 02:53:11;;;;;;;0.20;0.10;;;;;;;2.33;100.00;100640.06;5012993;28;20530;-50
2021/01/09 02:55:38;;;;;;;0.20;0.10;;;;;;;2.19;100.00;100636.38;5013422;28;20459;-50
2021/01/09 02:58:04;;;;;;;1.07;1.07;;;;;;;2.29;100.00;100642.59;5011344;28;20457;-51
2021/01/09 03:00:31;;;;;;;0.20;0.10;;;;;;;2.48;100.00;100641.94;5009091;28;20456;-51
2021/01/09 03:02:57;;;;;;;0.20;0.10;;;;;;;2.36;100.00;100641.81;5014403;28;20468;-51
2021/01/09 03:05:23;;;;;;;0.20;0.10;;;;;;;2.31;100.00;100651.38;5012851;28;20799;-50
2021/01/09 03:07:49;;;;;;;0.20;0.10;;;;;;;2.09;100.00;100639.78;5012977;28;20461;-50
2021/01/09 03:10:16;;;;;;;0.20;0.10;;;;;;;2.29;100.00;100642.59;5013974;28;20460;-51
2021/01/09 03:12:42;;;;;;;0.20;0.10;;;;;;;2.48;100.00;100647.19;5015580;28;20990;-50
2021/01/09 03:15:08;;;;;;;0.20;0.10;;;;;;;2.53;100.00;100640.25;5017994;28;20483;-51
2021/01/09 03:17:34;;;;;;;0.20;0.10;;;;;;;2.38;100.00;100646.22;5017790;28;20453;-50
2021/01/09 03:20:02;;;;;;;0.20;0.10;;;;;;;2.33;100.00;100647.94;5016758;28;20453;-51
2021/01/09 03:22:28;;;;;;;0.20;0.10;;;;;;;2.33;100.00;100647.94;5016609;28;20898;-51
2021/01/09 03:24:54;;;;;;;0.20;0.10;;;;;;;2.41;100.00;100647.09;5016090;28;20453;-51
2021/01/09 03:27:20;;;;;;;0.73;0.70;;;;;;;2.58;100.00;100642.91;5013903;28;20461;-50
2021/01/09 03:29:46;;;;;;;0.20;0.10;;;;;;;2.35;100.00;100643.56;5013671;28;20449;-51
2021/01/09 03:32:13;;;;;;;0.73;0.70;;;;;;;2.57;100.00;100651.63;5013789;28;20519;-51
2021/01/09 03:34:39;;;;;;;0.20;0.10;;;;;;;2.35;100.00;100648.81;5013394;28;20484;-50
2021/01/09 03:37:05;;;;;;;0.20;0.13;;;;;;;2.41;100.00;100645.34;5012846;28;20526;-50
2021/01/09 03:39:31;;;;;;;0.20;0.10;;;;;;;2.34;100.00;100648.81;5012853;28;20465;-50
2021/01/09 03:41:57;;;;;;;0.20;0.20;;;;;;;2.23;100.00;100643.44;5013451;28;20841;-50
2021/01/09 03:44:23;;;;;;;0.20;0.10;;;;;;;2.33;100.00;100645.31;5012916;28;20461;-50
2021/01/09 03:46:49;;;;;;;0.20;0.10;;;;;;;2.28;100.00;100641.72;5013276;28;20959;-50
2021/01/09 03:49:16;;;;;;;0.20;0.10;;;;;;;2.06;100.00;100648.50;5013353;28;20444;-50
2021/01/09 03:51:42;;;;;;;0.20;0.20;;;;;;;2.21;100.00;100652.16;5012665;28;20556;-50
2021/01/09 03:54:08;;;;;;;0.20;0.10;;;;;;;2.19;100.00;100654.72;5012968;28;20484;-50
2021/01/09 03:56:35;;;;;;;1.70;1.70;;;;;;;2.17;100.00;100651.22;5012232;28;20456;-51
2021/01/09 03:59:01;;;;;;;0.30;0.10;;;;;;;2.27;100.00;100647.84;5004959;28;21010;-50
2021/01/09 04:01:27;;;;;;;0.20;0.10;;;;;;;2.23;100.00;100656.53;5013349;28;20452;-50
2021/01/09 04:03:53;;;;;;;0.20;0.10;;;;;;;2.24;100.00;100646.94;5012883;28;20465;-50
2021/01/09 04:06:20;;;;;;;0.20;0.10;;;;;;;2.26;100.00;100647.81;5012912;28;20491;-50
2021/01/09 04:08:46;;;;;;;0.30;0.10;;;;;;;2.23;100.00;100656.53;5011777;28;20541;-50
2021/01/09 04:11:13;;;;;;;0.30;0.20;;;;;;;2.28;100.00;100661.84;5014865;28;20451;-51
2021/01/09 04:13:39;;;;;;;0.20;0.10;;;;;;;2.23;100.00;100658.28;5012455;28;20492;-50
2021/01/09 04:16:05;;;;;;;0.20;0.10;;;;;;;2.34;100.00;100648.81;5014677;28;20453;-50
2021/01/09 04:18:32;;;;;;;0.20;0.10;;;;;;;2.29;100.00;100655.72;5014764;28;20456;-51
2021/01/09 04:20:59;;;;;;;0.20;0.10;;;;;;;2.34;100.00;100646.19;5015020;28;20512;-51
2021/01/09 04:23:25;;;;;;;0.20;0.10;;;;;;;2.25;100.00;100654.81;5013568;28;20489;-50
2021/01/09 04:25:51;;;;;;;0.20;0.10;;;;;;;2.20;100.00;100653.03;5014794;28;20460;-50
2021/01/09 04:28:17;;;;;;;2.00;1.90;;;;;;;2.20;100.00;100653.03;5014038;28;20449;-50
2021/01/09 04:30:44;;;;;;;0.20;0.10;;;;;;;2.17;100.00;100652.97;5014771;28;20455;-50
2021/01/09 04:33:10;;;;;;;0.20;0.10;;;;;;;2.13;100.00;100654.69;5014525;28;20473;-51
2021/01/09 04:35:36;;;;;;;0.20;0.10;;;;;;;2.20;100.00;100651.28;5014960;28;20449;-51
2021/01/09 04:38:02;;;;;;;0.20;0.10;;;;;;;2.19;100.00;100654.72;5012533;28;20527;-50
2021/01/09 04:40:29;;;;;;;0.27;0.13;;;;;;;2.44;100.00;100653.25;5014486;28;20860;-51
2021/01/09 04:42:55;;;;;;;0.30;0.10;;;;;;;2.38;100.00;100656.72;5014403;28;20527;-51
2021/01/09 04:45:21;;;;;;;0.20;0.10;;;;;;;2.41;100.00;100653.22;5014269;28;20449;-50
2021/01/09 04:47:49;;;;;;;0.20;0.10;;;;;;;2.38;100.00;100661.94;5013950;28;21107;-50
2021/01/09 04:50:15;;;;;;;0.20;0.10;;;;;;;2.19;100.00;100653.84;5014369;28;20484;-50
2021/01/09 04:52:42;;;;;;;0.20;0.10;;;;;;;2.40;100.00;100667.22;5013621;28;20534;-50
2021/01/09 04:55:09;;;;;;;0.20;0.10;;;;;;;2.38;100.00;100659.31;5013596;28;21075;-50
2021/01/09 04:57:36;;;;;;;0.20;0.10;;;;;;;2.38;100.00;100658.44;5013071;28;20448;-50
2021/01/09 05:00:06;;;;;;;0.20;0.10;;;;;;;2.32;100.00;100661.00;5005286;28;20534;-50
2021/01/09 05:02:35;;;;;;;0.30;0.20;;;;;;;2.50;100.00;100663.81;5013276;28;20472;-51
2021/01/09 05:05:03;;;;;;;0.33;0.33;;;;;;;2.31;100.00;100667.09;5012429;28;20459;-50
2021/01/09 05:07:29;;;;;;;0.20;0.10;;;;;;;2.32;100.00;100666.22;5010980;28;20464;-50
2021/01/09 05:10:02;;;;;;;0.20;0.10;;;;;;;2.31;100.00;100662.75;5012697;28;20460;-50
2021/01/09 05:12:31;;;;;;;0.20;0.10;;;;;;;2.51;100.00;100670.84;5012334;28;20480;-51
2021/01/09 05:15:00;;;;;;;0.20;0.10;;;;;;;2.48;100.00;100670.81;5012340;28;20492;-51
2021/01/09 05:17:27;;;;;;;0.20;0.20;;;;;;;2.48;100.00;100681.31;5011530;28;20452;-50
2021/01/09 05:19:53;;;;;;;0.20;0.10;;;;;;;2.21;100.00;100676.63;5012281;28;20832;-50
2021/01/09 05:22:20;;;;;;;0.20;0.10;;;;;;;2.15;100.00;100687.03;5011289;28;20534;-50
2021/01/09 05:24:49;;;;;;;0.20;0.10;;;;;;;2.19;100.00;100690.56;5014229;28;20456;-51
2021/01/09 05:27:17;;;;;;;0.20;0.10;;;;;;;2.04;100.00;100688.63;5019340;28;20455;-51
2021/01/09 05:29:43;;;;;;;0.20;0.10;;;;;;;2.06;100.00;100693.06;5026686;28;20448;-50
2021/01/09 05:32:10;;;;;;;0.20;0.20;;;;;;;2.03;100.00;100686.88;5027121;28;20518;-51
2021/01/09 05:34:47;;;;;;;0.20;0.20;;;;;;;2.01;100.00;100692.09;5026843;28;21263;-50
2021/01/09 05:37:19;;;;;;;0.20;0.10;;;;;;;1.90;100.00;100696.31;5019612;28;20484;-50
2021/01/09 05:39:50;;;;;;;0.20;0.10;;;;;;;1.92;100.00;100697.25;5015982;28;20507;-50
2021/01/09 05:42:21;;;;;;;0.20;0.10;;;;;;;1.97;100.00;100707.78;5016509;28;20880;-51
2021/01/09 05:44:49;;;;;;;0.20;0.10;;;;;;;1.96;100.00;100700.78;5016327;28;20931;-50
2021/01/09 05:47:17;;;;;;;0.20;0.10;;;;;;;2.00;100.00;100708.69;5016043;28;20506;-50
2021/01/09 05:49:44;;;;;;;0.20;0.10;;;;;;;1.99;100.00;100711.31;5015829;28;20462;-51
2021/01/09 05:52:11;;;;;;;0.20;0.10;;;;;;;1.88;100.00;100708.53;5014925;28;20480;-51
2021/01/09 05:54:37;;;;;;;0.20;0.10;;;;;;;1.93;100.00;100714.75;5015149;28;20488;-51
2021/01/09 05:57:05;;;;;;;0.20;0.10;;;;;;;1.90;100.00;100709.44;5015459;28;20453;-50
2021/01/09 05:59:32;;;;;;;0.20;0.10;;;;;;;1.86;100.00;100712.00;5007525;28;20519;-50
2021/01/09 06:02:00;;;;;;;0.20;0.10;;;;;;;1.69;100.00;100717.91;5013604;28;20495;-50
2021/01/09 06:04:31;;;;;;;0.20;0.10;;;;;;;1.69;100.00;100722.25;5015536;28;20877;-50
2021/01/09 06:07:20;;;;;;;0.20;0.10;;;;;;;1.66;100.00;100720.47;5014449;28;20472;-50
2021/01/09 06:10:07;;;;;;;0.20;0.10;;;;;;;1.67;100.00;100721.38;5014824;28;20945;-51
2021/01/09 06:12:46;;;;;;;0.20;0.10;;;;;;;1.59;100.00;100730.84;5011333;28;20988;-51
2021/01/09 06:15:14;;;;;;;0.20;0.20;;;;;;;1.55;100.00;100722.06;5015394;28;20476;-51
2021/01/09 06:17:41;;;;;;;0.20;0.20;;;;;;;1.56;100.00;100729.06;5015173;28;20456;-51
2021/01/09 06:20:08;;;;;;;0.20;0.10;;;;;;;1.61;100.00;100724.75;5014524;28;20453;-51
2021/01/09 06:22:36;;;;;;;0.20;0.10;;;;;;;1.74;100.00;100733.69;5013294;28;20491;-50
2021/01/09 06:25:03;;;;;;;0.20;0.17;;;;;;;1.75;100.00;100724.94;5015293;28;20448;-51
2021/01/09 06:27:32;;;;;;;0.20;0.10;;;;;;;1.71;100.00;100731.91;5015073;28;20460;-51
2021/01/09 06:30:03;;;;;;;0.20;0.10;;;;;;;1.97;100.00;100732.25;5014933;28;20484;-51
2021/01/09 06:32:35;;;;;;;0.20;0.10;;;;;;;1.88;100.00;100729.50;5014670;28;20469;-51
2021/01/09 06:35:05;;;;;;;0.20;0.10;;;;;;;1.80;100.00;100732.91;5013969;28;20967;-51
2021/01/09 06:37:31;;;;;;;0.20;0.10;;;;;;;1.68;100.00;100731.84;5014931;28;20464;-51
2021/01/09 06:39:57;;;;;;;0.20;0.10;;;;;;;1.62;100.00;100734.38;5015186;28;21006;-51
2021/01/09 06:42:24;;;;;;;0.20;0.10;;;;;;;1.61;100.00;100731.72;5015026;28;20527;-52
2021/01/09 06:44:52;;;;;;;0.20;0.10;;;;;;;1.60;100.00;100730.84;5014524;28;20499;-51
2021/01/09 06:47:24;;;;;;;0.20;0.10;;;;;;;1.59;100.00;100739.56;5014406;28;20984;-51
2021/01/09 06:49:51;;;;;;;0.20;0.10;;;;;;;1.61;100.00;100736.97;5014473;28;20452;-51
2021/01/09 06:52:17;;;;;;;0.20;0.10;;;;;;;1.59;100.00;100739.56;5014131;28;20473;-51
2021/01/09 06:54:45;;;;;;;0.20;0.10;;;;;;;1.56;100.00;100738.66;5011329;28;20508;-51
2021/01/09 06:57:13;;;;;;;0.20;0.10;;;;;;;1.59;100.00;100747.44;5014012;28;20452;-51
2021/01/09 06:59:58;;;;;;;0.20;0.10;;;;;;;1.53;100.00;100744.75;5014198;28;20461;-51
2021/01/09 07:02:26;;;;;;;0.20;0.10;;;;;;;1.48;100.00;100744.66;5013717;28;20915;-51
2021/01/09 07:05:04;;;;;;;0.20;0.10;;;;;;;1.52;100.00;100749.94;5013013;28;20479;-51
2021/01/09 07:07:32;;;;;;;0.20;0.10;;;;;;;1.43;100.00;100748.94;5012910;28;20863;-51
2021/01/09 07:10:19;;;;;;;0.20;0.10;;;;;;;1.43;100.00;100745.44;5013975;28;20452;-51
2021/01/09 07:12:48;;;;;;;0.20;0.10;;;;;;;1.41;100.00;100757.63;5014276;28;20932;-52
2021/01/09 07:15:16;;;;;;;0.20;0.10;;;;;;;1.41;100.00;100765.50;5013725;28;20492;-52
2021/01/09 07:17:49;;;;;;;0.20;0.20;;;;;;;1.40;100.00;100759.38;5014453;28;20456;-51
2021/01/09 07:20:18;;;;;;;0.20;0.10;;;;;;;1.37;100.00;100764.56;5012834;28;20460;-52
2021/01/09 07:22:47;;;;;;;0.20;0.20;;;;;;;1.33;100.00;100767.09;5013426;28;20535;-52
2021/01/09 07:25:22;;;;;;;0.20;0.10;;;;;;;1.36;100.00;100761.91;5013955;28;20449;-52
2021/01/09 07:27:50;;;;;;;0.20;0.10;;;;;;;1.30;100.00;100770.56;5014243;28;20448;-52
2021/01/09 07:30:19;;;;;;;0.20;0.10;;;;;;;1.35;100.00;100781.09;5014062;28;20465;-52
2021/01/09 07:32:50;;;;;;;0.20;0.10;;;;;;;1.38;100.00;100774.19;5013593;28;20477;-52
2021/01/09 07:35:25;;;;;;;0.20;0.10;;;;;;;1.78;100.00;100764.28;5014385;28;20481;-53
2021/01/09 07:37:57;;;;;;;0.20;0.20;;;;;;;1.90;100.00;100777.56;5013378;28;20464;-52
2021/01/09 07:40:24;;;;;;;1.17;1.17;;;;;;;2.30;100.00;100781.63;5014276;28;20865;-52
2021/01/09 07:42:51;;;;;;;0.20;0.10;;;;;;;2.29;100.00;100778.97;5014640;28;20473;-52
2021/01/09 07:45:22;;;;;;;0.20;0.10;;;;;;;2.36;100.00;100779.09;5013138;28;20461;-52
2021/01/09 07:47:49;;;;;;;1.17;1.07;;;;;;;2.22;100.00;100785.03;5013682;28;20444;-53
2021/01/09 07:50:18;;;;;;;0.20;0.10;;;;;;;2.24;100.00;100784.19;5014441;28;20452;-53
2021/01/09 07:52:46;;;;;;;0.20;0.10;;;;;;;2.27;100.00;100784.22;5013238;28;20472;-52
2021/01/09 07:55:17;;;;;;;0.20;0.10;;;;;;;2.04;100.00;100801.38;5013728;28;20511;-52
2021/01/09 07:57:45;;;;;;;0.20;0.10;;;;;;;1.95;100.00;100801.25;5013336;28;20464;-52
2021/01/09 08:00:15;;;;;;;0.20;0.10;;;;;;;2.07;100.00;100804.94;5004392;28;20467;-52
2021/01/09 08:02:44;;;;;;;0.20;0.10;;;;;;;2.07;100.00;100802.31;5013298;28;20472;-52
2021/01/09 08:05:21;;;;;;;0.20;0.10;;;;;;;2.06;100.00;100816.28;5013378;28;20448;-52
2021/01/09 08:07:54;;;;;;;0.20;0.10;;;;;;;2.03;100.00;100825.81;5000686;28;20452;-52
2021/01/09 08:10:29;;;;;;;0.20;0.10;;;;;;;2.03;100.00;100828.44;5013003;28;20449;-51
2021/01/09 08:13:05;;;;;;;0.20;0.10;;;;;;;1.94;100.00;100829.22;5012746;28;20476;-52
2021/01/09 08:15:36;;;;;;;0.20;0.10;;;;;;;1.89;100.00;100824.75;5010927;28;20561;-52
2021/01/09 08:18:04;;;;;;;0.20;0.10;;;;;;;2.03;100.00;100831.94;5012702;28;20460;-52
2021/01/09 08:20:31;;;;;;;0.20;0.10;;;;;;;2.18;100.00;100833.03;5013108;28;20523;-51
2021/01/09 08:23:01;;;;;;;0.20;0.10;;;;;;;2.64;100.00;100837.16;5012899;28;20891;-51
2021/01/09 08:25:35;;;;;;;0.20;0.10;;;;;;;2.37;100.00;100835.06;5013197;28;20449;-52
2021/01/09 08:28:03;;;;;;;0.20;0.10;;;;;;;2.31;100.00;100841.09;5012785;28;20503;-51
2021/01/09 08:30:35;;;;;;;0.20;0.10;;;;;;;2.29;100.00;100848.06;5011825;28;20456;-52
2021/01/09 08:33:06;;;;;;;0.20;0.10;;;;;;;2.25;100.00;100850.63;5013138;28;20584;-52
2021/01/09 08:35:34;;;;;;;0.20;0.10;;;;;;;2.24;100.00;100848.88;5012684;28;20480;-51
2021/01/09 08:38:01;;;;;;;0.20;0.10;;;;;;;2.39;100.00;100854.31;5013732;28;20823;-51
2021/01/09 08:40:27;;;;;;;0.20;0.10;;;;;;;2.59;100.00;100850.19;5012430;28;20514;-51
2021/01/09 08:43:04;;;;;;;0.20;0.10;;;;;;;2.58;100.00;100848.44;5012647;28;20472;-51
2021/01/09 08:45:57;;;;;;;0.20;0.10;;;;;;;2.67;100.00;100851.19;5012816;28;20447;-51
2021/01/09 08:48:29;;;;;;;0.20;0.10;;;;;;;2.62;100.00;100858.13;4999887;28;20460;-51
2021/01/09 08:51:18;;;;;;;0.20;0.10;;;;;;;2.79;99.66;100860.06;5012832;28;20499;-51
2021/01/09 08:53:51;;;;;;;0.20;0.10;;;;;;;2.68;99.77;100850.31;5012191;28;20515;-52
2021/01/09 08:56:19;;;;;;;0.20;0.10;;;;;;;2.79;99.74;100853.09;4999838;28;20918;-51
2021/01/09 08:58:46;;;;;;;0.20;0.10;;;;;;;2.85;99.27;100854.88;5013700;28;20495;-52
2021/01/09 09:01:14;;;;;;;0.20;0.10;;;;;;;2.74;99.11;100853.88;5002385;28;20456;-51
2021/01/09 09:03:52;;;;;;;0.20;0.10;;;;;;;2.92;99.38;100862.00;5015098;28;20488;-52
2021/01/09 09:06:21;;;;;;;0.70;0.70;;;;;;;2.71;98.85;100859.97;5016530;28;20448;-52
2021/01/09 09:08:48;;;;;;;0.20;0.10;;;;;;;2.80;99.42;100867.09;5014583;28;20488;-52
2021/01/09 09:11:15;;;;;;;0.20;0.10;;;;;;;2.55;100.00;100866.78;5016315;28;20503;-52
2021/01/09 09:13:42;;;;;;;0.20;0.10;;;;;;;2.60;100.00;100872.97;5015960;28;20490;-51
2021/01/09 09:16:15;;;;;;;0.20;0.10;;;;;;;2.61;99.55;100873.88;5016457;28;20506;-51
2021/01/09 09:18:42;;;;;;;0.20;0.10;;;;;;;2.76;100.00;100876.69;5016065;28;20456;-51
2021/01/09 09:21:09;;;;;;;0.20;0.10;;;;;;;3.02;100.00;100877.00;5016158;28;20831;-51
2021/01/09 09:23:36;;;;;;;0.20;0.10;;;;;;;3.24;99.76;100885.97;5014825;28;20480;-51
2021/01/09 09:26:13;;;;;;;0.20;0.10;;;;;;;3.06;98.10;100885.78;5015944;28;20862;-51
2021/01/09 09:28:59;;;;;;;0.20;0.10;;;;;;;3.03;99.31;100885.75;5016921;28;20498;-51
2021/01/09 09:31:32;;;;;;;1.90;1.60;;;;;;;2.95;100.00;100890.91;5016630;28;20448;-51
2021/01/09 09:34:04;;;;;;;0.20;0.10;;;;;;;2.77;100.00;100893.31;5015626;28;20473;-51
2021/01/09 09:36:49;;;;;;;0.20;0.10;;;;;;;2.63;100.00;100896.63;5015863;28;20452;-52
2021/01/09 09:39:20;;;;;;;0.20;0.10;;;;;;;3.10;99.55;100898.94;5015069;28;20509;-51
2021/01/09 09:41:46;;;;;;;0.20;0.10;;;;;;;3.21;98.45;100902.59;5004789;28;20483;-51
2021/01/09 09:44:13;;;;;;;0.20;0.10;;;;;;;3.00;98.74;100897.06;5015769;28;20942;-51
2021/01/09 09:46:41;;;;;;;0.20;0.10;;;;;;;3.15;97.93;100907.78;5015784;28;20501;-51
2021/01/09 09:49:07;;;;;;;0.20;0.10;;;;;;;3.06;99.40;100904.16;5016152;28;20452;-51
2021/01/09 09:51:35;;;;;;;0.20;0.10;;;;;;;2.87;99.05;100908.28;5015938;28;20456;-51
2021/01/09 09:54:03;;;;;;;0.20;0.10;;;;;;;2.75;98.58;100903.78;5014882;28;20480;-51
2021/01/09 09:56:37;;;;;;;0.20;0.10;;;;;;;2.80;97.81;100899.47;5015684;28;20456;-52
2021/01/09 09:59:09;;;;;;;0.77;0.77;;;;;;;2.70;98.90;100904.56;5008082;28;20874;-51
2021/01/09 10:01:37;;;;;;;0.20;0.10;;;;;;;2.77;98.13;100903.81;5015498;28;20445;-51
2021/01/09 10:04:22;;;;;;;0.20;0.10;;;;;;;2.73;97.51;100901.97;5015449;28;20448;-51
2021/01/09 10:06:50;;;;;;;0.20;0.10;;;;;;;2.88;97.39;100902.22;5013626;28;20465;-52
2021/01/09 10:09:21;;;;;;;0.20;0.20;;;;;;;2.90;98.67;100908.34;5002881;28;20452;-52
2021/01/09 10:11:49;;;;;;;0.20;0.10;;;;;;;3.06;97.75;100906.78;5014112;28;20803;-52
2021/01/09 10:14:20;;;;;;;0.20;0.10;;;;;;;3.14;97.24;100900.75;5015569;28;20564;-52
2021/01/09 10:16:47;;;;;;;0.30;0.10;;;;;;;3.25;96.84;100903.50;5015298;28;20452;-51
2021/01/09 10:19:16;;;;;;;0.30;0.20;;;;;;;3.03;95.64;100907.63;5015131;28;20540;-51
2021/01/09 10:21:43;;;;;;;0.20;0.10;;;;;;;3.15;96.06;100899.00;5013768;28;20480;-51
2021/01/09 10:24:10;;;;;;;0.20;0.10;;;;;;;3.15;95.15;100899.91;5002964;28;20445;-51
2021/01/09 10:26:38;;;;;;;0.20;0.10;;;;;;;2.98;95.46;100899.69;5015841;28;20452;-51
2021/01/09 10:29:04;;;;;;;0.20;0.10;;;;;;;3.20;94.60;100903.47;5015213;28;20449;-52
2021/01/09 10:31:36;;;;;;;0.20;0.10;;;;;;;3.27;95.35;100901.75;5014815;28;20456;-52
2021/01/09 10:34:05;;;;;;;0.20;0.10;;;;;;;3.28;95.52;100895.63;5015173;28;20515;-51
2021/01/09 10:36:33;;;;;;;0.20;0.10;;;;;;;3.05;95.50;100891.91;5014805;28;20514;-51
2021/01/09 10:39:00;;;;;;;0.20;0.20;;;;;;;3.05;94.66;100887.53;5014373;28;20456;-52
2021/01/09 10:41:27;;;;;;;0.20;0.10;;;;;;;3.26;94.83;100895.63;5013763;28;20452;-51
2021/01/09 10:43:56;;;;;;;0.20;0.10;;;;;;;3.31;94.92;100895.69;5015030;28;20477;-51
2021/01/09 10:46:23;;;;;;;0.20;0.10;;;;;;;3.26;94.99;100889.50;5015162;28;20457;-52
2021/01/09 10:48:50;;;;;;;0.20;0.10;;;;;;;3.32;94.20;100896.56;5014423;28;20457;-51
2021/01/09 10:51:21;;;;;;;0.20;0.10;;;;;;;3.53;94.23;100886.25;5012907;28;20538;-52
2021/01/09 10:53:48;;;;;;;0.20;0.10;;;;;;;3.41;93.73;100883.50;5014830;28;20465;-52
2021/01/09 10:56:14;;;;;;;0.20;0.10;;;;;;;3.59;93.50;100888.09;5014250;28;20495;-52
2021/01/09 10:58:41;;;;;;;0.20;0.10;;;;;;;3.65;93.48;100888.13;5007378;28;20865;-52
2021/01/09 11:01:08;;;;;;;0.20;0.10;;;;;;;3.63;94.83;100884.63;5012938;28;20456;-52
2021/01/09 11:03:35;;;;;;;0.20;0.10;;;;;;;3.62;93.15;100886.38;5010248;28;20567;-51
2021/01/09 11:06:04;;;;;;;1.40;1.40;;;;;;;3.46;93.22;100884.47;5010691;28;20454;-49
2021/01/09 11:08:30;;;;;;;0.20;0.10;;;;;;;3.54;93.52;100885.41;5012716;28;21004;-52
2021/01/09 11:10:56;;;;;;;0.20;0.10;;;;;;;3.60;92.93;100885.47;5009621;28;20460;-51
2021/01/09 11:13:23;;;;;;;0.20;0.10;;;;;;;3.61;93.06;100888.97;5009776;28;21812;-52
2021/01/09 11:15:51;;;;;;;0.20;0.10;;;;;;;3.32;92.06;100888.69;5013974;28;20499;-51
2021/01/09 11:18:18;;;;;;;0.20;0.10;;;;;;;3.69;91.58;100885.53;5013926;28;20464;-52
2021/01/09 11:20:48;;;;;;;0.20;0.10;;;;;;;3.54;91.35;100890.66;5001173;28;20449;-52
2021/01/09 11:23:14;;;;;;;0.20;0.20;;;;;;;3.55;92.71;100888.03;5013284;28;20990;-52
2021/01/09 11:25:42;;;;;;;0.20;0.10;;;;;;;3.66;92.06;100888.13;5013850;28;20520;-52
2021/01/09 11:28:08;;;;;;;0.20;0.10;;;;;;;4.06;91.09;100886.72;5012971;28;21016;-52
2021/01/09 11:30:34;;;;;;;0.20;0.10;;;;;;;3.95;90.81;100890.13;5013952;28;20483;-52
2021/01/09 11:33:00;;;;;;;0.20;0.10;;;;;;;4.00;90.98;100894.59;5013645;28;20464;-52